NCAR-RAP Real-Time Weather Data

Output produced by METARs form (24 April 2018  16:23 UTC)
found at http://weather.rap.ucar.edu/surface/
 
RJOB 241200Z 35007KT 3500 SHRA BR BCFG FEW000 SCT005 BKN030 17/16 Q1004
RJOB 241149Z 35006KT 310V020 3000 SHRA BR BCFG FEW000 BKN005 BKN030 17/16 Q1004 RMK 1ST000 5ST005 7CU030 A2966 FG NE-E AND SW
RJOB 241120Z 06004KT 2500 SHRA BR BCFG FEW000 SCT015 BKN025 16/16 Q1004 RMK 1ST000 3CU015 5CU025 A2966 FG NE-E AND SW
RJOB 241100Z 01002KT 3500 -SHRA BR BCFG FEW000 SCT015 BKN025 16/16 Q1004
RJOB 241044Z 05006KT 4500 -SHRA BR PRFG FEW000 SCT020 BKN035 16/16 Q1004 RMK 1ST000 3CU020 5CU035 A2966 FG NE-E
RJOB 241021Z 05006KT 7000 -SHRA BCFG FEW000 SCT015 BKN040 16/16 Q1004 RMK 1ST000 3CU015 5CU040 A2965 FG NE-E AND SW
RJOB 241000Z 06005KT 4000 SHRA BR BCFG FEW000 SCT015 BKN030 16/16 Q1004
RJOB 240929Z 10005KT 3000 SHRA BR BCFG FEW000 SCT015 BKN030 16/16 Q1004 RMK 1ST000 3CU015 5CU030 A2966 FG NE-SE AND S-SW
RJOB 240900Z 10005KT 9000 -SHRA BCFG FEW000 SCT015 BKN035 16/16 Q1004
RJOB 240800Z 11008KT 9000 -SHRA PRFG FEW000 SCT005 BKN020 16/16 Q1004
RJOB 240730Z 10008KT 7000 -SHRA PRFG FEW000 SCT005 BKN020 16/16 Q1004 RMK 1ST000 3ST005 5CU020 A2967 FG SW
RJOB 240700Z 11007KT 4500 -SHRA BR BCFG FEW000 SCT015 BKN040 16/16 Q1005
RJOB 240600Z 10008KT 5000 -SHRA BR BCFG FEW000 SCT006 BKN025 17/16 Q1005
RJOB 240549Z 09007KT 5000 SHRA BR BCFG FEW000 SCT008 BKN025 17/16 Q1006 RMK 1ST000 3ST008 5CU025 A2972 FG NE-SE AND SW
RJOB 240521Z 10007KT 4000 SHRA BR BCFG FEW000 SCT008 BKN030 17/16 Q1006 RMK 1ST000 4ST008 5CU030 A2972 FG NE-SE AND SW
RJOB 240500Z 10008KT 070V130 6000 -SHRA PRFG FEW000 SCT009 BKN030 17/16 Q1006
RJOB 240425Z 09010KT 7000 -SHRA PRFG FEW000 SCT009 BKN035 17/16 Q1007 RMK 1ST000 4ST009 5CU035 A2974 FG NE
RJOB 240400Z 10008KT 4500 -SHRA BR FEW005 SCT009 BKN035 17/16 Q1007
RJOB 240300Z 10010KT 7000 -SHRA PRFG FEW000 SCT010 BKN030 17/16 Q1008
RJOB 240200Z 09008KT 4500 -SHRA BR PRFG FEW000 SCT008 BKN030 16/16 Q1010
RJOB 240100Z 09008KT 4500 -SHRA BR PRFG FEW000 SCT005 BKN080 16/15 Q1010
RJOB 240000Z 07007KT 3500 -SHRA BR PRFG FEW000 SCT002 BKN060 16/16 Q1011
RJOB 232300Z 08007KT 3500 -SHRA BR BCFG FEW000 SCT005 BKN040 15/15 Q1011
RJOB 232200Z 06008KT 4500 -SHRA BR BCFG FEW000 SCT005 BKN060 15/15 Q1012
RJOB 232115Z 07007KT 4500 -SHRA BR PRFG FEW000 SCT015 BKN050 15/14 Q1012 RMK 1ST000 3CU015 5SC050 A2990 FG NE-E
RJOB 231200Z 04006KT 9999 FEW015 BKN050 BKN/// 16/14 Q1016
RJOB 231100Z 06006KT 9999 -RA FEW015 BKN060 BKN/// 16/14 Q1016
RJOB 231000Z 10004KT 9999 -RA FEW020 BKN070 BKN/// 17/13 Q1016
RJOB 230900Z 12005KT 020V170 9999 FEW025 BKN070 BKN/// 19/12 Q1015
RJOB 230800Z 11008KT 080V140 9999 FEW025 BKN070 BKN/// 19/12 Q1015
RJOB 230700Z 12009KT 100V160 9999 -RA FEW030 BKN100 20/12 Q1015
RJOB 230600Z 14008KT 100V180 9999 FEW030 SCT140 BKN170 21/13 Q1016
RJOB 230500Z 18006KT 140V240 9999 FEW030 SCT045 BKN150 23/12 Q1016
RJOB 230400Z 20005KT 100V270 9999 FEW030 BKN/// 23/12 Q1016
RJOB 230300Z 11007KT 050V150 9999 FEW030 BKN/// 22/12 Q1017
RJOB 230200Z 10005KT 040V210 9999 FEW025 BKN/// 20/12 Q1018
RJOB 230100Z VRB04KT 9999 FEW015 BKN/// 19/13 Q1018
RJOB 230000Z 05004KT 340V110 9999 FEW010 SCT015 BKN/// 17/13 Q1018
RJOB 222300Z 10003KT 050V120 9999 FEW008 BKN010 16/13 Q1019
RJOB 222200Z 05004KT 9999 PRFG FEW000 BKN/// 15/12 Q1019
RJOB 222115Z 09004KT 9999 PRFG FEW000 BKN/// 12/11 Q1018 RMK 1ST000 A3008 FG NE-E
RJOB 221200Z VRB01KT CAVOK 18/09 Q1018
RJOB 221100Z VRB02KT CAVOK 18/10 Q1017
RJOB 221000Z 13005KT CAVOK 19/09 Q1017
RJOB 220900Z 10006KT CAVOK 21/09 Q1017
RJOB 220800Z 15006KT 110V180 CAVOK 24/10 Q1017
RJOB 220700Z 14004KT 070V220 CAVOK 24/09 Q1017
RJOB 220600Z 19006KT 150V260 CAVOK 26/11 Q1018
RJOB 220500Z VRB05KT CAVOK 25/11 Q1018